Austin, Texas
Traffic Map
Current Weather Conditions
Austin, Texas
Overcast
Overcast
76°
Feels Like: 76°
Wind Chill: 76° Ceiling: 2800
Heat Index: 76° Visibility: 10mi
Dew Point: 70° Wind: 8mph
Humidity: 82% Direction: 60° (ENE)
Pressure: 29.77in Gusts: 22mph
Raw Report DataKATT 262235Z AUTO 06007G19KT 030V130 10SM FEW022 BKN028 OVC047 24/21 A2977 RMK AO2 T02440211
Traffic Incident Summary
Active as of:
Severity:
Category:
InformationThere was an issue retrieving the traffic information for this location. Please try a different location or try again shortly.
Advertisements
Track Severe Weather on mobile